Time;durP1;ratioP1;P1;durP2;ratioP2;P2;SDS_P1;SDS_P2;PMS_P1;PMS_P2;Temp;Humidity;BMP_temperature;BMP_pressure;BME280_temperature;BME280_humidity;BME280_pressure;Samples;Min_cycle;Max_cycle;Signal;HPM_P1;HPM_P2
2023/06/25 00:01:47;;;;;;;6.78;3.45;;;;;;;;;;5053407;28;20013;-72
2023/06/25 00:04:12;;;;;;;15.60;4.13;;;;;;;;;;5052017;28;20387;-72
2023/06/25 00:06:37;;;;;;;9.73;4.22;;;;;;;;;;5053668;28;20009;-72
2023/06/25 00:09:03;;;;;;;7.27;3.90;;;;;;;;;;5053536;28;20013;-72
2023/06/25 00:11:28;;;;;;;7.28;3.72;;;;;;;;;;5050166;28;20276;-72
2023/06/25 00:13:53;;;;;;;7.07;3.97;;;;;;;;;;5052174;28;20029;-73
2023/06/25 00:16:18;;;;;;;10.80;4.38;;;;;;;;;;5051220;28;20255;-73
2023/06/25 00:18:44;;;;;;;8.60;4.03;;;;;;;;;;5051548;28;20111;-72
2023/06/25 00:21:10;;;;;;;8.40;3.78;;;;;;;;;;5049997;28;20528;-72
2023/06/25 00:23:35;;;;;;;6.70;3.92;;;;;;;;;;5052183;28;20070;-72
2023/06/25 00:26:00;;;;;;;7.45;3.63;;;;;;;;;;5049393;28;20026;-72
2023/06/25 00:28:26;;;;;;;7.10;4.00;;;;;;;;;;5051740;28;20060;-72
2023/06/25 00:30:51;;;;;;;7.97;4.45;;;;;;;;;;5052895;28;20260;-72
2023/06/25 00:33:16;;;;;;;6.80;4.00;;;;;;;;;;5052837;28;20032;-73
2023/06/25 00:35:51;;;;;;;8.55;3.80;;;;;;;;;;5044297;28;20271;-72
2023/06/25 00:38:17;;;;;;;6.50;3.67;;;;;;;;;;5047010;28;20025;-72
2023/06/25 00:40:42;;;;;;;9.82;3.67;;;;;;;;;;5049661;28;20489;-73
2023/06/25 00:43:07;;;;;;;7.05;3.70;;;;;;;;;;5051132;28;20013;-73
2023/06/25 00:45:33;;;;;;;6.78;3.88;;;;;;;;;;5051718;28;20017;-72
2023/06/25 00:47:58;;;;;;;8.85;4.00;;;;;;;;;;5052669;28;20041;-72
2023/06/25 00:50:24;;;;;;;6.30;3.75;;;;;;;;;;5049375;28;20051;-72
2023/06/25 00:52:50;;;;;;;8.55;3.60;;;;;;;;;;5049205;28;20029;-72
2023/06/25 00:55:15;;;;;;;7.50;2.97;;;;;;;;;;5051132;28;20028;-72
2023/06/25 00:57:41;;;;;;;6.13;3.60;;;;;;;;;;5051470;28;20017;-72
2023/06/25 01:00:12;;;;;;;10.00;4.28;;;;;;;;;;5049222;28;20017;-74
2023/06/25 01:02:43;;;;;;;9.52;3.47;;;;;;;;;;5048197;28;20021;-73
2023/06/25 01:05:11;;;;;;;7.43;3.65;;;;;;;;;;5047123;28;20061;-74
2023/06/25 01:07:37;;;;;;;7.68;4.13;;;;;;;;;;5047503;28;20032;-73
2023/06/25 01:10:03;;;;;;;6.82;3.58;;;;;;;;;;5049458;28;20021;-73
2023/06/25 01:12:28;;;;;;;6.90;3.80;;;;;;;;;;5049232;28;20033;-74
2023/06/25 01:14:54;;;;;;;8.83;3.93;;;;;;;;;;5050533;28;20036;-74
2023/06/25 01:17:19;;;;;;;7.80;3.67;;;;;;;;;;5046525;28;20754;-74
2023/06/25 01:19:45;;;;;;;10.57;4.07;;;;;;;;;;5050492;28;20016;-73
2023/06/25 01:22:11;;;;;;;7.38;4.38;;;;;;;;;;5049365;28;20531;-73
2023/06/25 01:24:37;;;;;;;8.70;4.22;;;;;;;;;;5047116;28;20291;-73
2023/06/25 01:27:05;;;;;;;8.45;3.92;;;;;;;;;;5047774;28;20474;-74
2023/06/25 01:29:32;;;;;;;6.93;4.35;;;;;;;;;;5050638;28;20788;-74
2023/06/25 01:31:58;;;;;;;13.93;4.30;;;;;;;;;;5048767;28;20470;-73
2023/06/25 01:34:23;;;;;;;11.15;4.25;;;;;;;;;;5050246;28;20031;-73
2023/06/25 01:36:52;;;;;;;6.68;3.95;;;;;;;;;;5050111;28;20116;-73
2023/06/25 01:39:17;;;;;;;8.75;4.00;;;;;;;;;;5050061;28;20021;-73
2023/06/25 01:41:43;;;;;;;10.07;3.88;;;;;;;;;;5050753;28;20090;-73
2023/06/25 01:44:10;;;;;;;7.07;3.83;;;;;;;;;;5051727;28;20040;-73
2023/06/25 01:46:35;;;;;;;5.57;3.70;;;;;;;;;;5046595;28;20025;-73
2023/06/25 01:49:01;;;;;;;8.30;4.53;;;;;;;;;;5049798;28;20087;-74
2023/06/25 01:51:26;;;;;;;8.43;4.70;;;;;;;;;;5049305;28;20656;-74
2023/06/25 01:53:52;;;;;;;7.70;3.85;;;;;;;;;;5050435;28;20039;-73
2023/06/25 01:56:17;;;;;;;11.27;4.10;;;;;;;;;;5046516;28;20013;-73
2023/06/25 01:58:42;;;;;;;7.35;4.40;;;;;;;;;;5048148;28;20292;-73
2023/06/25 02:01:07;;;;;;;8.53;4.17;;;;;;;;;;5047642;28;20040;-73
2023/06/25 02:03:32;;;;;;;7.95;4.35;;;;;;;;;;5050435;28;20274;-73
2023/06/25 02:05:58;;;;;;;6.80;4.10;;;;;;;;;;5050082;28;20025;-74
2023/06/25 02:08:23;;;;;;;9.90;4.23;;;;;;;;;;5049562;28;20025;-73
2023/06/25 02:10:48;;;;;;;8.13;4.53;;;;;;;;;;5049241;28;20695;-73
2023/06/25 02:13:14;;;;;;;9.83;4.50;;;;;;;;;;5049272;28;20024;-73
2023/06/25 02:15:40;;;;;;;8.25;4.28;;;;;;;;;;5046704;28;20279;-73
2023/06/25 02:18:05;;;;;;;8.93;4.15;;;;;;;;;;5049395;28;20020;-73
2023/06/25 02:20:30;;;;;;;9.10;4.97;;;;;;;;;;5048454;28;20100;-73
2023/06/25 02:22:55;;;;;;;7.63;4.63;;;;;;;;;;5048921;28;20779;-73
2023/06/25 02:25:20;;;;;;;7.23;4.37;;;;;;;;;;5044845;28;20025;-73
2023/06/25 02:27:46;;;;;;;10.70;5.00;;;;;;;;;;5050490;28;20294;-73
2023/06/25 02:30:11;;;;;;;8.40;4.53;;;;;;;;;;5050568;28;20252;-73
2023/06/25 02:32:36;;;;;;;7.88;4.88;;;;;;;;;;5050525;28;20259;-73
2023/06/25 02:35:01;;;;;;;10.30;4.65;;;;;;;;;;5049550;28;20028;-73
2023/06/25 02:37:27;;;;;;;8.30;4.73;;;;;;;;;;5048289;28;20075;-73
2023/06/25 02:39:52;;;;;;;9.97;4.93;;;;;;;;;;5049383;28;20302;-73
2023/06/25 02:42:17;;;;;;;11.57;5.20;;;;;;;;;;5050713;28;20338;-73
2023/06/25 02:44:42;;;;;;;9.43;5.53;;;;;;;;;;5048404;28;20025;-73
2023/06/25 02:47:07;;;;;;;9.90;4.67;;;;;;;;;;5049737;28;20256;-73
2023/06/25 02:49:32;;;;;;;8.53;4.47;;;;;;;;;;5049657;28;20260;-73
2023/06/25 02:51:58;;;;;;;15.37;4.90;;;;;;;;;;5047557;28;20361;-73
2023/06/25 02:54:23;;;;;;;7.60;4.28;;;;;;;;;;5049428;28;20485;-73
2023/06/25 02:56:50;;;;;;;8.27;4.43;;;;;;;;;;5048805;28;20025;-73
2023/06/25 02:59:15;;;;;;;6.72;4.50;;;;;;;;;;5050021;28;20411;-74
2023/06/25 03:01:40;;;;;;;8.27;4.77;;;;;;;;;;5050024;28;20051;-73
2023/06/25 03:04:06;;;;;;;11.40;4.60;;;;;;;;;;5049066;28;20286;-73
2023/06/25 03:06:31;;;;;;;10.35;5.40;;;;;;;;;;5048443;28;20744;-73
2023/06/25 03:08:56;;;;;;;10.03;5.43;;;;;;;;;;5048679;28;20048;-73
2023/06/25 03:11:21;;;;;;;12.80;6.20;;;;;;;;;;5048864;28;20283;-73
2023/06/25 03:13:47;;;;;;;13.03;5.57;;;;;;;;;;5048765;28;20350;-73
2023/06/25 03:16:12;;;;;;;10.52;5.38;;;;;;;;;;5049052;28;20639;-73
2023/06/25 03:18:37;;;;;;;8.83;5.33;;;;;;;;;;5048769;28;20080;-73
2023/06/25 03:21:02;;;;;;;14.85;5.32;;;;;;;;;;5048309;28;20752;-73
2023/06/25 03:23:27;;;;;;;9.38;5.80;;;;;;;;;;5048987;28;20464;-73
2023/06/25 03:25:53;;;;;;;15.63;6.30;;;;;;;;;;5052082;28;20012;-73
2023/06/25 03:28:18;;;;;;;12.83;5.30;;;;;;;;;;5053436;28;20538;-73
2023/06/25 03:30:46;;;;;;;10.50;6.00;;;;;;;;;;5049184;28;20274;-73
2023/06/25 03:33:11;;;;;;;14.77;5.45;;;;;;;;;;5053370;28;20268;-73
2023/06/25 03:35:36;;;;;;;9.40;5.40;;;;;;;;;;5050776;28;20013;-73
2023/06/25 03:38:01;;;;;;;11.40;5.10;;;;;;;;;;5052196;28;20278;-73
2023/06/25 03:40:27;;;;;;;10.03;5.57;;;;;;;;;;5053494;28;20322;-73
2023/06/25 03:42:52;;;;;;;10.93;5.60;;;;;;;;;;5053810;28;20256;-73
2023/06/25 03:45:17;;;;;;;10.70;5.23;;;;;;;;;;5052385;28;20091;-73
2023/06/25 03:47:42;;;;;;;11.33;5.17;;;;;;;;;;5052158;28;20271;-73
2023/06/25 03:50:08;;;;;;;8.20;4.93;;;;;;;;;;5051816;28;20409;-73
2023/06/25 03:52:33;;;;;;;14.02;6.05;;;;;;;;;;5049984;28;20394;-73
2023/06/25 03:54:58;;;;;;;9.47;5.63;;;;;;;;;;5051633;28;20058;-73
2023/06/25 03:57:23;;;;;;;12.43;5.30;;;;;;;;;;5051001;28;20789;-73
2023/06/25 03:59:49;;;;;;;10.48;5.85;;;;;;;;;;5053128;28;20065;-73
2023/06/25 04:02:14;;;;;;;11.75;5.35;;;;;;;;;;5050841;28;20395;-73
2023/06/25 04:04:39;;;;;;;10.45;4.97;;;;;;;;;;5050566;28;20052;-73
2023/06/25 04:07:04;;;;;;;11.32;6.53;;;;;;;;;;5050781;28;20048;-73
2023/06/25 04:09:30;;;;;;;8.43;5.40;;;;;;;;;;5051672;28;20025;-73
2023/06/25 04:11:55;;;;;;;8.60;5.00;;;;;;;;;;5051963;28;20302;-73
2023/06/25 04:14:20;;;;;;;7.63;4.53;;;;;;;;;;5051662;28;20274;-73
2023/06/25 04:16:45;;;;;;;10.17;5.50;;;;;;;;;;5049931;28;20024;-73
2023/06/25 04:19:10;;;;;;;11.97;6.67;;;;;;;;;;5049354;28;20658;-73
2023/06/25 04:21:36;;;;;;;9.10;5.53;;;;;;;;;;5051429;28;20013;-73
2023/06/25 04:24:01;;;;;;;13.90;5.40;;;;;;;;;;5047010;28;20271;-73
2023/06/25 04:26:26;;;;;;;10.63;5.55;;;;;;;;;;5050842;28;20497;-73
2023/06/25 04:28:51;;;;;;;14.67;6.30;;;;;;;;;;5051167;28;20395;-73
2023/06/25 04:31:16;;;;;;;10.37;6.27;;;;;;;;;;5051214;28;20325;-73
2023/06/25 04:33:42;;;;;;;12.97;6.53;;;;;;;;;;5051286;28;20275;-73
2023/06/25 04:36:10;;;;;;;11.50;5.93;;;;;;;;;;5049735;28;20267;-73
2023/06/25 04:38:35;;;;;;;9.80;6.25;;;;;;;;;;5051934;28;20049;-73
2023/06/25 04:41:00;;;;;;;12.53;6.27;;;;;;;;;;5051749;28;20052;-73
2023/06/25 04:43:25;;;;;;;11.83;6.03;;;;;;;;;;5050224;28;20298;-73
2023/06/25 04:45:51;;;;;;;10.20;6.10;;;;;;;;;;5052526;28;20728;-73
2023/06/25 04:48:17;;;;;;;11.50;6.53;;;;;;;;;;5047943;28;20280;-73
2023/06/25 04:50:42;;;;;;;13.35;6.70;;;;;;;;;;5051511;28;20602;-73
2023/06/25 04:53:07;;;;;;;11.20;5.73;;;;;;;;;;5051224;28;20033;-73
2023/06/25 04:55:32;;;;;;;11.35;6.35;;;;;;;;;;5052320;28;20024;-73
2023/06/25 04:57:57;;;;;;;12.30;6.63;;;;;;;;;;5052049;28;20067;-73
2023/06/25 05:00:23;;;;;;;9.75;5.93;;;;;;;;;;5051294;28;20609;-73
2023/06/25 05:02:48;;;;;;;13.40;6.20;;;;;;;;;;5050473;28;20406;-73
2023/06/25 05:05:13;;;;;;;17.17;5.90;;;;;;;;;;5050841;28;20748;-73
2023/06/25 05:07:38;;;;;;;8.60;5.50;;;;;;;;;;5052163;28;20263;-73
2023/06/25 05:10:03;;;;;;;10.37;6.20;;;;;;;;;;5049517;28;20413;-73
2023/06/25 05:12:29;;;;;;;13.30;6.47;;;;;;;;;;5050571;28;20031;-73
2023/06/25 05:14:54;;;;;;;10.37;5.90;;;;;;;;;;5052018;28;20082;-73
2023/06/25 05:17:19;;;;;;;10.87;6.20;;;;;;;;;;5051206;28;20640;-73
2023/06/25 05:19:44;;;;;;;13.53;6.33;;;;;;;;;;5048112;28;20278;-73
2023/06/25 05:22:09;;;;;;;11.70;6.00;;;;;;;;;;5050033;28;20017;-73
2023/06/25 05:24:35;;;;;;;12.73;6.37;;;;;;;;;;5049422;28;20023;-73
2023/06/25 05:27:00;;;;;;;9.17;5.87;;;;;;;;;;5046257;28;20056;-73
2023/06/25 05:29:25;;;;;;;10.23;6.77;;;;;;;;;;5047616;28;20036;-73
2023/06/25 05:31:52;;;;;;;14.07;6.63;;;;;;;;;;5050759;28;20267;-73
2023/06/25 05:34:17;;;;;;;9.43;6.25;;;;;;;;;;5049384;28;20474;-73
2023/06/25 05:36:42;;;;;;;11.25;6.35;;;;;;;;;;5050082;28;20021;-73
2023/06/25 05:39:08;;;;;;;10.60;6.43;;;;;;;;;;5048888;28;20431;-73
2023/06/25 05:41:36;;;;;;;11.43;5.93;;;;;;;;;;5046270;28;20063;-73
2023/06/25 05:44:01;;;;;;;9.35;6.10;;;;;;;;;;5049412;28;20322;-73
2023/06/25 05:46:26;;;;;;;8.07;5.53;;;;;;;;;;5046131;28;20112;-73
2023/06/25 05:48:51;;;;;;;10.60;5.30;;;;;;;;;;5046661;28;20090;-73
2023/06/25 05:51:17;;;;;;;10.60;6.03;;;;;;;;;;5049202;28;20036;-73
2023/06/25 05:53:43;;;;;;;7.30;5.37;;;;;;;;;;5048030;28;20545;-73
2023/06/25 05:56:08;;;;;;;14.93;6.72;;;;;;;;;;5048542;28;20310;-73
2023/06/25 05:58:34;;;;;;;13.50;6.28;;;;;;;;;;5047139;28;20463;-73
2023/06/25 06:01:00;;;;;;;10.77;5.90;;;;;;;;;;5044713;28;20059;-72
2023/06/25 06:03:25;;;;;;;15.15;6.72;;;;;;;;;;5050621;28;20454;-72
2023/06/25 06:05:50;;;;;;;10.40;6.30;;;;;;;;;;5049263;28;20017;-72
2023/06/25 06:08:15;;;;;;;9.80;6.30;;;;;;;;;;5047477;28;20275;-72
2023/06/25 06:10:40;;;;;;;10.27;5.63;;;;;;;;;;5049198;28;20342;-72
2023/06/25 06:13:05;;;;;;;8.30;5.80;;;;;;;;;;5048756;28;20283;-71
2023/06/25 06:15:31;;;;;;;11.63;4.73;;;;;;;;;;5049206;28;20271;-72
2023/06/25 06:17:56;;;;;;;11.10;6.50;;;;;;;;;;5048565;28;20462;-72
2023/06/25 06:20:21;;;;;;;11.73;5.40;;;;;;;;;;5047595;28;20021;-72
2023/06/25 06:22:46;;;;;;;9.97;6.37;;;;;;;;;;5046656;28;20621;-72
2023/06/25 06:25:11;;;;;;;14.53;5.57;;;;;;;;;;5049148;28;20052;-72
2023/06/25 06:27:36;;;;;;;8.47;5.63;;;;;;;;;;5047322;28;20040;-71
2023/06/25 06:30:02;;;;;;;11.70;6.03;;;;;;;;;;5050292;28;20029;-71
2023/06/25 06:32:27;;;;;;;8.57;6.05;;;;;;;;;;5049562;28;20306;-71
2023/06/25 06:34:52;;;;;;;10.83;5.90;;;;;;;;;;5044546;28;20090;-71
2023/06/25 06:37:17;;;;;;;10.23;4.77;;;;;;;;;;5044443;28;20288;-71
2023/06/25 06:39:42;;;;;;;7.73;4.47;;;;;;;;;;5044043;28;20278;-72
2023/06/25 06:42:08;;;;;;;14.73;5.50;;;;;;;;;;5044212;28;20377;-71
2023/06/25 06:44:33;;;;;;;9.38;5.03;;;;;;;;;;5043921;28;20070;-71
2023/06/25 06:46:58;;;;;;;9.03;5.70;;;;;;;;;;5048658;28;20025;-72
2023/06/25 06:49:23;;;;;;;11.00;5.70;;;;;;;;;;5049864;28;20256;-71
2023/06/25 06:51:48;;;;;;;8.38;5.22;;;;;;;;;;5045411;28;20023;-71
2023/06/25 06:54:14;;;;;;;9.13;4.95;;;;;;;;;;5047201;28;20062;-71
2023/06/25 06:56:39;;;;;;;6.70;4.80;;;;;;;;;;5049786;28;20017;-71
2023/06/25 06:59:04;;;;;;;10.43;4.10;;;;;;;;;;5050126;28;20375;-72
2023/06/25 07:01:29;;;;;;;8.67;5.40;;;;;;;;;;5045231;28;20020;-71
2023/06/25 07:03:56;;;;;;;8.00;5.07;;;;;;;;;;5048824;28;20016;-71
2023/06/25 07:06:21;;;;;;;7.05;4.10;;;;;;;;;;5049297;28;20266;-71
2023/06/25 07:08:47;;;;;;;10.73;4.53;;;;;;;;;;5048943;28;20033;-71
2023/06/25 07:11:13;;;;;;;13.52;6.93;;;;;;;;;;5047627;28;20029;-71
2023/06/25 07:13:38;;;;;;;4.10;1.90;;;;;;;;;;5043522;28;20025;-71
2023/06/25 07:16:03;;;;;;;7.97;4.63;;;;;;;;;;5047978;28;20099;-72
2023/06/25 07:18:28;;;;;;;6.20;4.20;;;;;;;;;;5046824;28;20661;-71
2023/06/25 07:20:53;;;;;;;8.63;5.13;;;;;;;;;;5048955;28;20048;-71
2023/06/25 07:23:19;;;;;;;7.70;5.20;;;;;;;;;;5047359;28;20355;-71
2023/06/25 07:25:44;;;;;;;6.00;3.67;;;;;;;;;;5048084;28;20017;-71
2023/06/25 07:28:09;;;;;;;7.97;4.87;;;;;;;;;;5048761;28;20021;-71
2023/06/25 07:30:35;;;;;;;7.78;4.70;;;;;;;;;;5048041;28;20268;-72
2023/06/25 07:33:00;;;;;;;6.63;3.92;;;;;;;;;;5049313;28;20530;-71
2023/06/25 07:35:25;;;;;;;7.07;4.00;;;;;;;;;;5048567;28;20749;-72
2023/06/25 07:37:50;;;;;;;7.30;4.80;;;;;;;;;;5048186;28;20013;-71
2023/06/25 07:40:16;;;;;;;8.67;4.67;;;;;;;;;;5048504;28;20108;-71
2023/06/25 07:42:41;;;;;;;7.93;5.27;;;;;;;;;;5048443;28;20017;-71
2023/06/25 07:45:06;;;;;;;6.37;4.90;;;;;;;;;;5048390;28;20259;-72
2023/06/25 07:47:32;;;;;;;8.15;4.95;;;;;;;;;;5047986;28;20275;-72
2023/06/25 07:49:57;;;;;;;7.35;4.60;;;;;;;;;;5048667;28;20097;-72
2023/06/25 07:52:22;;;;;;;7.30;4.97;;;;;;;;;;5047416;28;20032;-73
2023/06/25 07:54:47;;;;;;;6.43;4.20;;;;;;;;;;5049175;28;20021;-72
2023/06/25 07:57:13;;;;;;;7.40;4.63;;;;;;;;;;5047454;28;20021;-72
2023/06/25 07:59:38;;;;;;;7.90;4.63;;;;;;;;;;5047906;28;20017;-72
2023/06/25 08:02:03;;;;;;;6.63;4.27;;;;;;;;;;5047179;28;20673;-72
2023/06/25 08:04:28;;;;;;;6.50;4.20;;;;;;;;;;5048398;28;20263;-72
2023/06/25 08:06:54;;;;;;;7.07;3.83;;;;;;;;;;5048173;28;20028;-71
2023/06/25 08:09:19;;;;;;;3.17;2.30;;;;;;;;;;5048213;28;20021;-72
2023/06/25 08:11:44;;;;;;;6.07;3.43;;;;;;;;;;5049156;28;20156;-71
2023/06/25 08:14:09;;;;;;;8.13;4.22;;;;;;;;;;5050960;28;20024;-72
2023/06/25 08:16:34;;;;;;;6.43;4.43;;;;;;;;;;5052606;28;20016;-71
2023/06/25 08:19:00;;;;;;;6.20;4.30;;;;;;;;;;5049046;28;20668;-71
2023/06/25 08:21:25;;;;;;;7.55;3.90;;;;;;;;;;5050611;28;20102;-71
2023/06/25 08:23:50;;;;;;;7.25;4.10;;;;;;;;;;5052149;28;20016;-71
2023/06/25 08:26:15;;;;;;;5.57;4.17;;;;;;;;;;5051339;28;20096;-73
2023/06/25 08:28:41;;;;;;;5.77;4.17;;;;;;;;;;5051507;28;20602;-71
2023/06/25 08:31:06;;;;;;;6.93;4.78;;;;;;;;;;5050982;28;20059;-71
2023/06/25 08:33:32;;;;;;;8.73;4.70;;;;;;;;;;5050881;28;20033;-72
2023/06/25 08:35:57;;;;;;;7.90;4.82;;;;;;;;;;5051854;28;20520;-71
2023/06/25 08:38:24;;;;;;;8.40;4.40;;;;;;;;;;5049559;28;20116;-71
2023/06/25 08:40:52;;;;;;;8.18;4.15;;;;;;;;;;5051445;28;20528;-71
2023/06/25 08:43:17;;;;;;;6.57;4.40;;;;;;;;;;5049027;28;20078;-71
2023/06/25 08:45:42;;;;;;;5.67;2.87;;;;;;;;;;5047766;28;20017;-72
2023/06/25 08:48:11;;;;;;;8.45;3.83;;;;;;;;;;5051772;28;20252;-71
2023/06/25 08:50:37;;;;;;;8.50;3.58;;;;;;;;;;5051642;28;20270;-71
2023/06/25 08:53:02;;;;;;;9.63;3.88;;;;;;;;;;5051587;28;20052;-72
2023/06/25 08:55:28;;;;;;;6.97;4.27;;;;;;;;;;5051780;28;20147;-71
2023/06/25 08:57:53;;;;;;;28.60;4.80;;;;;;;;;;5052336;28;20362;-72
2023/06/25 09:00:19;;;;;;;6.00;3.80;;;;;;;;;;5049453;28;20409;-71
2023/06/25 09:02:44;;;;;;;6.20;3.67;;;;;;;;;;5052040;28;20028;-71
2023/06/25 09:05:11;;;;;;;8.03;5.23;;;;;;;;;;5051020;28;20260;-71
2023/06/25 09:07:42;;;;;;;7.65;4.40;;;;;;;;;;5052207;28;20251;-71
2023/06/25 09:10:08;;;;;;;6.32;4.80;;;;;;;;;;5049032;28;20086;-71
2023/06/25 09:12:33;;;;;;;8.88;5.00;;;;;;;;;;5045860;28;21826;-72
2023/06/25 09:14:58;;;;;;;7.23;4.13;;;;;;;;;;5047396;28;20122;-71
2023/06/25 09:17:23;;;;;;;6.07;4.18;;;;;;;;;;5049640;28;20025;-71
2023/06/25 09:19:49;;;;;;;6.65;4.32;;;;;;;;;;5051850;28;20474;-72
2023/06/25 09:22:14;;;;;;;6.55;3.78;;;;;;;;;;5051787;28;20106;-72
2023/06/25 09:24:43;;;;;;;10.85;4.20;;;;;;;;;;5051798;28;20458;-72
2023/06/25 09:27:09;;;;;;;6.32;4.03;;;;;;;;;;5051985;28;20560;-71
2023/06/25 09:29:35;;;;;;;5.57;4.18;;;;;;;;;;5049248;28;20067;-72
2023/06/25 09:32:05;;;;;;;9.98;4.72;;;;;;;;;;5051468;28;20045;-73
2023/06/25 09:34:30;;;;;;;7.93;3.97;;;;;;;;;;5051485;28;20024;-72
2023/06/25 09:36:55;;;;;;;6.87;5.47;;;;;;;;;;5048731;28;20085;-72
2023/06/25 09:39:20;;;;;;;8.83;4.20;;;;;;;;;;5050252;28;20100;-72
2023/06/25 09:41:46;;;;;;;7.40;4.07;;;;;;;;;;5051564;28;20009;-71
2023/06/25 09:44:11;;;;;;;7.03;4.25;;;;;;;;;;5051210;28;20505;-71
2023/06/25 09:46:37;;;;;;;7.23;3.53;;;;;;;;;;5051744;28;20035;-71
2023/06/25 09:49:03;;;;;;;7.25;4.25;;;;;;;;;;5051622;28;20724;-72
2023/06/25 09:51:49;;;;;;;7.40;3.95;;;;;;;;;;5050224;28;20029;-71
2023/06/25 09:54:15;;;;;;;5.70;4.05;;;;;;;;;;5048353;28;20041;-72
2023/06/25 09:56:42;;;;;;;7.40;4.40;;;;;;;;;;5051180;28;20098;-72
2023/06/25 09:59:08;;;;;;;5.05;3.83;;;;;;;;;;5051119;28;20048;-71
2023/06/25 10:01:33;;;;;;;5.97;4.20;;;;;;;;;;5051171;28;20454;-71
2023/06/25 10:03:58;;;;;;;7.47;4.23;;;;;;;;;;5050233;28;20064;-71
2023/06/25 10:06:24;;;;;;;7.80;4.57;;;;;;;;;;5050050;28;20748;-72
2023/06/25 10:08:50;;;;;;;6.45;4.03;;;;;;;;;;5049770;28;20075;-71
2023/06/25 10:11:15;;;;;;;5.38;3.95;;;;;;;;;;5050482;28;20078;-71
2023/06/25 10:13:41;;;;;;;6.22;4.05;;;;;;;;;;5050921;28;20032;-71
2023/06/25 10:16:06;;;;;;;8.57;4.20;;;;;;;;;;5047909;28;20064;-71
2023/06/25 10:18:39;;;;;;;6.73;4.20;;;;;;;;;;5047851;28;20463;-71
2023/06/25 10:21:05;;;;;;;6.20;4.20;;;;;;;;;;5039641;28;20123;-72
2023/06/25 10:23:35;;;;;;;6.53;4.50;;;;;;;;;;5049059;28;20445;-71
2023/06/25 10:26:01;;;;;;;5.40;4.03;;;;;;;;;;5054994;28;20017;-71
2023/06/25 10:28:34;;;;;;;7.28;4.30;;;;;;;;;;5047758;28;20039;-72
2023/06/25 10:30:59;;;;;;;6.53;4.07;;;;;;;;;;5049998;28;20027;-72
2023/06/25 10:33:26;;;;;;;6.60;4.20;;;;;;;;;;5048184;28;20025;-73
2023/06/25 10:35:55;;;;;;;9.82;4.55;;;;;;;;;;5044494;28;20440;-72
2023/06/25 10:38:20;;;;;;;;;;;;;;;;;;5045477;28;20016;-71
2023/06/25 10:40:46;;;;;;;7.47;4.22;;;;;;;;;;5043832;28;19908;-71
2023/06/25 10:43:20;;;;;;;6.82;4.47;;;;;;;;;;5045966;28;20016;-72
2023/06/25 10:45:49;;;;;;;7.13;4.10;;;;;;;;;;5046156;28;20415;-72
2023/06/25 10:48:14;;;;;;;11.83;7.17;;;;;;;;;;5046309;28;20470;-72
2023/06/25 10:50:40;;;;;;;5.90;4.30;;;;;;;;;;5041972;28;20036;-72
2023/06/25 10:53:12;;;;;;;8.77;5.27;;;;;;;;;;5044277;28;20079;-73
2023/06/25 10:55:38;;;;;;;7.60;5.40;;;;;;;;;;5042850;28;20048;-72
2023/06/25 10:58:04;;;;;;;7.95;5.25;;;;;;;;;;5041207;28;20032;-71
2023/06/25 11:00:29;;;;;;;8.18;3.45;;;;;;;;;;5049210;28;20078;-72
2023/06/25 11:02:55;;;;;;;6.30;4.13;;;;;;;;;;5046996;28;20013;-71
2023/06/25 11:05:23;;;;;;;10.40;5.55;;;;;;;;;;5046925;28;20629;-71
2023/06/25 11:07:52;;;;;;;8.80;4.43;;;;;;;;;;5044236;28;20054;-71
2023/06/25 11:10:17;;;;;;;6.13;4.28;;;;;;;;;;5041323;28;20178;-72
2023/06/25 11:12:42;;;;;;;8.03;4.73;;;;;;;;;;5040277;28;20521;-71
2023/06/25 11:15:07;;;;;;;8.23;4.33;;;;;;;;;;5045699;28;20617;-72
2023/06/25 11:17:33;;;;;;;5.65;4.30;;;;;;;;;;5043528;28;20119;-71
2023/06/25 11:19:58;;;;;;;6.03;4.30;;;;;;;;;;5042116;28;20108;-71
2023/06/25 11:22:23;;;;;;;7.83;3.97;;;;;;;;;;5043189;28;20993;-72
2023/06/25 11:24:49;;;;;;;5.90;3.87;;;;;;;;;;5048737;28;20262;-71
2023/06/25 11:27:20;;;;;;;6.50;4.20;;;;;;;;;;5047669;28;20668;-72
2023/06/25 11:29:46;;;;;;;5.03;3.38;;;;;;;;;;5046849;28;20036;-72
2023/06/25 11:32:20;;;;;;;6.13;4.18;;;;;;;;;;5041536;28;20032;-71
2023/06/25 11:34:45;;;;;;;8.57;3.50;;;;;;;;;;5045766;28;20078;-71
2023/06/25 11:37:14;;;;;;;5.90;3.93;;;;;;;;;;5048520;28;20021;-72
2023/06/25 11:39:46;;;;;;;6.28;4.47;;;;;;;;;;5042622;28;20024;-72
2023/06/25 11:42:12;;;;;;;8.10;3.97;;;;;;;;;;5046653;28;20090;-72
2023/06/25 11:44:38;;;;;;;6.82;3.78;;;;;;;;;;5044496;28;20438;-71
2023/06/25 11:47:03;;;;;;;18.53;12.90;;;;;;;;;;5049576;28;20104;-71
2023/06/25 11:49:28;;;;;;;6.43;4.47;;;;;;;;;;5045712;28;20021;-71
2023/06/25 11:51:53;;;;;;;5.07;3.60;;;;;;;;;;5053121;28;20017;-71
2023/06/25 11:54:19;;;;;;;6.57;3.33;;;;;;;;;;5050310;28;20263;-71
2023/06/25 11:56:44;;;;;;;5.63;4.13;;;;;;;;;;5051789;28;20425;-71
2023/06/25 11:59:09;;;;;;;6.03;3.57;;;;;;;;;;5050288;28;20369;-72
2023/06/25 12:01:34;;;;;;;5.60;3.63;;;;;;;;;;5050871;28;20110;-71
2023/06/25 12:03:59;;;;;;;4.77;3.60;;;;;;;;;;5047094;28;20437;-73
2023/06/25 12:06:25;;;;;;;10.30;4.05;;;;;;;;;;5039374;28;20032;-72
2023/06/25 12:08:50;;;;;;;5.53;3.90;;;;;;;;;;5045327;28;20025;-72
2023/06/25 12:11:15;;;;;;;5.77;3.30;;;;;;;;;;5045981;28;20029;-71
2023/06/25 12:13:41;;;;;;;7.00;3.85;;;;;;;;;;5038609;28;20904;-72
2023/06/25 12:16:06;;;;;;;4.93;3.93;;;;;;;;;;5034637;28;20394;-74
2023/06/25 12:18:31;;;;;;;7.90;4.03;;;;;;;;;;5037800;28;20029;-74
2023/06/25 12:20:56;;;;;;;5.03;3.10;;;;;;;;;;5037943;28;20096;-72
2023/06/25 12:23:21;;;;;;;5.03;3.50;;;;;;;;;;5038913;28;20454;-72
2023/06/25 12:25:47;;;;;;;6.93;3.07;;;;;;;;;;5048385;28;20677;-71
2023/06/25 12:28:12;;;;;;;4.53;3.10;;;;;;;;;;5045631;28;20363;-72
2023/06/25 12:30:37;;;;;;;5.13;3.67;;;;;;;;;;5049295;28;20478;-71
2023/06/25 12:33:02;;;;;;;5.17;3.33;;;;;;;;;;5050446;28;20766;-72
2023/06/25 12:35:28;;;;;;;8.03;4.40;;;;;;;;;;5048977;28;20021;-71
2023/06/25 12:37:53;;;;;;;4.63;3.00;;;;;;;;;;5050856;28;20070;-72
2023/06/25 12:40:18;;;;;;;5.28;3.67;;;;;;;;;;5048152;28;20017;-73
2023/06/25 12:42:44;;;;;;;5.97;4.37;;;;;;;;;;5045186;28;20028;-72
2023/06/25 12:45:09;;;;;;;8.07;3.70;;;;;;;;;;5049589;28;20028;-72
2023/06/25 12:47:35;;;;;;;4.72;3.60;;;;;;;;;;5051115;28;20071;-73
2023/06/25 12:50:00;;;;;;;5.60;3.63;;;;;;;;;;5049646;28;20531;-72
2023/06/25 12:52:27;;;;;;;5.97;4.30;;;;;;;;;;5048831;28;20352;-72
2023/06/25 12:54:52;;;;;;;6.80;4.32;;;;;;;;;;5051056;28;20079;-73
2023/06/25 12:57:17;;;;;;;5.83;3.90;;;;;;;;;;5047883;28;20028;-73
2023/06/25 12:59:43;;;;;;;5.63;4.43;;;;;;;;;;5051205;28;20381;-72
2023/06/25 13:02:08;;;;;;;4.30;3.38;;;;;;;;;;5047081;28;20040;-71
2023/06/25 13:04:33;;;;;;;6.67;4.33;;;;;;;;;;5045698;28;20017;-72
2023/06/25 13:06:58;;;;;;;9.25;4.22;;;;;;;;;;5049078;28;20679;-73
2023/06/25 13:09:24;;;;;;;4.13;2.42;;;;;;;;;;5047511;28;20032;-73
2023/06/25 13:11:49;;;;;;;4.73;3.53;;;;;;;;;;5043505;28;20104;-73
2023/06/25 13:14:14;;;;;;;8.70;4.83;;;;;;;;;;5045478;28;20059;-74
2023/06/25 13:16:39;;;;;;;6.03;3.65;;;;;;;;;;5049281;28;20055;-74
2023/06/25 13:19:04;;;;;;;6.43;3.97;;;;;;;;;;5049205;28;20039;-74
2023/06/25 13:21:30;;;;;;;6.97;4.30;;;;;;;;;;5048182;28;20263;-72
2023/06/25 13:23:55;;;;;;;5.07;3.70;;;;;;;;;;5049557;28;20537;-73
2023/06/25 13:26:20;;;;;;;5.30;3.83;;;;;;;;;;5047288;28;20139;-73
2023/06/25 13:28:45;;;;;;;6.30;3.40;;;;;;;;;;5041607;28;20078;-73
2023/06/25 13:31:10;;;;;;;5.47;3.80;;;;;;;;;;5050377;28;20077;-73
2023/06/25 13:33:36;;;;;;;7.30;3.73;;;;;;;;;;5050400;28;20344;-73
2023/06/25 13:36:01;;;;;;;9.33;3.97;;;;;;;;;;5050633;28;20047;-74
2023/06/25 13:38:26;;;;;;;7.38;4.03;;;;;;;;;;5050855;28;20017;-73
2023/06/25 13:40:51;;;;;;;6.83;4.10;;;;;;;;;;5051335;28;20016;-73
2023/06/25 13:43:17;;;;;;;4.70;3.73;;;;;;;;;;5052268;28;20644;-72
2023/06/25 13:45:42;;;;;;;5.63;3.83;;;;;;;;;;5051213;28;20478;-73
2023/06/25 13:48:07;;;;;;;8.03;3.90;;;;;;;;;;5051283;28;20612;-74
2023/06/25 13:50:32;;;;;;;7.37;4.60;;;;;;;;;;5049675;28;20317;-73
2023/06/25 13:52:57;;;;;;;7.63;4.00;;;;;;;;;;5051201;28;20560;-73
2023/06/25 13:55:23;;;;;;;12.87;7.00;;;;;;;;;;5050772;28;20048;-73
2023/06/25 13:57:48;;;;;;;10.90;4.33;;;;;;;;;;5051014;28;20017;-73
2023/06/25 14:00:13;;;;;;;5.63;3.87;;;;;;;;;;5050874;28;20265;-73
2023/06/25 14:02:38;;;;;;;5.15;3.97;;;;;;;;;;5050717;28;20021;-73
2023/06/25 14:05:04;;;;;;;6.67;3.90;;;;;;;;;;5048333;28;20036;-74
2023/06/25 14:07:29;;;;;;;5.30;3.33;;;;;;;;;;5049258;28;20516;-73
2023/06/25 14:09:54;;;;;;;4.83;2.43;;;;;;;;;;5049954;28;20414;-73
2023/06/25 14:12:19;;;;;;;6.13;4.17;;;;;;;;;;5050588;28;20063;-73
2023/06/25 14:14:44;;;;;;;8.53;4.20;;;;;;;;;;5044903;28;20491;-74
2023/06/25 14:17:09;;;;;;;6.50;4.23;;;;;;;;;;5048547;28;20029;-73
2023/06/25 14:19:35;;;;;;;6.17;3.50;;;;;;;;;;5048509;28;20078;-74
2023/06/25 14:22:00;;;;;;;7.40;3.90;;;;;;;;;;5048482;28;20498;-73
2023/06/25 14:24:25;;;;;;;4.80;3.37;;;;;;;;;;5048208;28;20020;-73
2023/06/25 14:26:50;;;;;;;5.90;4.07;;;;;;;;;;5045970;28;20028;-73
2023/06/25 14:29:16;;;;;;;5.50;3.37;;;;;;;;;;5046503;28;20024;-73
2023/06/25 14:31:41;;;;;;;5.50;3.10;;;;;;;;;;5048377;28;20029;-73